createdAt,value
2023-05-12T00:01:02.155Z,66.40
2023-05-12T00:03:30.586Z,66.60
2023-05-12T00:06:00.382Z,65.90
2023-05-12T00:08:27.793Z,66.70
2023-05-12T00:10:55.113Z,65.20
2023-05-12T00:13:23.957Z,64.70
2023-05-12T00:15:51.347Z,66.30
2023-05-12T00:18:18.536Z,66.00
2023-05-12T00:20:45.814Z,67.00
2023-05-12T00:23:13.060Z,66.70
2023-05-12T00:25:40.334Z,66.20
2023-05-12T00:28:07.564Z,65.80
2023-05-12T00:30:34.785Z,66.50
2023-05-12T00:33:02.138Z,64.60
2023-05-12T00:35:29.518Z,65.10
2023-05-12T00:37:56.886Z,65.10
2023-05-12T00:40:24.105Z,65.40
2023-05-12T00:42:51.314Z,65.60
2023-05-12T00:45:18.537Z,66.50
2023-05-12T00:47:46.590Z,66.50
2023-05-12T00:50:14.383Z,67.40
2023-05-12T00:52:41.672Z,67.10
2023-05-12T00:55:09.300Z,67.00
2023-05-12T00:57:36.506Z,66.80
2023-05-12T01:00:04.965Z,66.70
2023-05-12T01:02:32.646Z,67.20
2023-05-12T01:05:00.001Z,67.00
2023-05-12T01:07:29.809Z,67.30
2023-05-12T01:09:57.819Z,67.20
2023-05-12T01:12:29.000Z,68.40
2023-05-12T01:14:57.694Z,67.70
2023-05-12T01:17:32.468Z,67.70
2023-05-12T01:20:05.809Z,67.50
2023-05-12T01:22:33.828Z,67.20
2023-05-12T01:25:08.213Z,67.90
2023-05-12T01:27:39.232Z,68.00
2023-05-12T01:30:08.619Z,67.50
2023-05-12T01:32:38.294Z,67.90
2023-05-12T01:35:06.683Z,68.80
2023-05-12T01:37:35.286Z,69.60
2023-05-12T01:40:04.997Z,69.50
2023-05-12T01:42:32.465Z,69.00
2023-05-12T01:45:00.038Z,69.00
2023-05-12T01:47:28.780Z,69.50
2023-05-12T01:50:07.887Z,69.80
2023-05-12T01:52:35.375Z,69.70
2023-05-12T01:55:03.638Z,69.90
2023-05-12T01:57:36.638Z,70.30
2023-05-12T02:00:04.269Z,70.90
2023-05-12T02:02:43.089Z,71.20
2023-05-12T02:05:12.635Z,71.40
2023-05-12T02:07:40.985Z,72.00
2023-05-12T02:10:09.494Z,72.00
2023-05-12T02:12:36.848Z,71.50
2023-05-12T02:15:04.537Z,71.30
2023-05-12T02:17:33.548Z,71.30
2023-05-12T02:20:05.881Z,71.30
2023-05-12T02:22:33.111Z,71.50
2023-05-12T02:25:00.495Z,71.20
2023-05-12T02:27:28.118Z,71.20
2023-05-12T02:29:55.877Z,71.20
2023-05-12T02:32:23.274Z,71.30
2023-05-12T02:34:51.636Z,71.30
2023-05-12T02:37:19.035Z,71.30
2023-05-12T02:39:47.211Z,71.00
2023-05-12T02:42:14.456Z,71.40
2023-05-12T02:44:41.973Z,71.40
2023-05-12T02:47:09.246Z,71.30
2023-05-12T02:49:36.657Z,71.80
2023-05-12T02:52:04.133Z,72.50
2023-05-12T02:54:31.478Z,73.40
2023-05-12T02:56:59.805Z,73.30
2023-05-12T02:59:27.467Z,73.80
2023-05-12T03:01:54.794Z,74.00
2023-05-12T03:04:22.476Z,74.20
2023-05-12T03:06:49.987Z,73.70
2023-05-12T03:09:18.034Z,74.40
2023-05-12T03:11:45.779Z,73.20
2023-05-12T03:14:13.026Z,73.30
2023-05-12T03:16:40.634Z,73.30
2023-05-12T03:19:08.235Z,73.90
2023-05-12T03:21:35.620Z,73.80
2023-05-12T03:24:04.366Z,73.70
2023-05-12T03:26:31.739Z,74.10
2023-05-12T03:28:59.425Z,72.30
2023-05-12T03:31:27.750Z,72.10
2023-05-12T03:33:56.997Z,72.10
2023-05-12T03:36:24.891Z,72.70
2023-05-12T03:38:53.998Z,72.50
2023-05-12T03:41:22.995Z,72.30
2023-05-12T03:43:50.676Z,72.50
2023-05-12T03:46:18.042Z,72.50
2023-05-12T03:48:45.358Z,72.80
2023-05-12T03:51:13.046Z,72.50
2023-05-12T03:53:45.176Z,72.30
2023-05-12T03:56:15.538Z,72.20
2023-05-12T03:58:43.854Z,72.80
2023-05-12T04:01:11.324Z,73.60
2023-05-12T04:03:39.186Z,73.90
2023-05-12T04:06:07.208Z,73.20
2023-05-12T04:08:34.646Z,73.20
2023-05-12T04:11:02.361Z,73.60
2023-05-12T04:13:31.827Z,73.50
2023-05-12T04:15:59.752Z,73.80
2023-05-12T04:18:28.580Z,73.90
2023-05-12T04:20:56.018Z,72.80
2023-05-12T04:23:23.548Z,71.60
2023-05-12T04:25:50.780Z,71.40
2023-05-12T04:28:18.043Z,71.90
2023-05-12T04:30:45.813Z,72.00
2023-05-12T04:33:13.148Z,71.60
2023-05-12T04:35:41.031Z,71.50
2023-05-12T04:38:10.257Z,72.00
2023-05-12T04:40:38.333Z,72.80
2023-05-12T04:43:06.270Z,73.00
2023-05-12T04:45:33.905Z,72.40
2023-05-12T04:48:01.222Z,72.70
2023-05-12T04:50:28.805Z,71.50
2023-05-12T04:52:56.104Z,71.80
2023-05-12T04:55:23.632Z,72.10
2023-05-12T04:57:51.002Z,70.90
2023-05-12T05:00:18.426Z,71.90
2023-05-12T05:02:47.449Z,71.20
2023-05-12T05:05:15.083Z,71.50
2023-05-12T05:07:42.389Z,71.20
2023-05-12T05:10:09.926Z,71.40
2023-05-12T05:12:37.706Z,70.00
2023-05-12T05:15:05.375Z,69.90
2023-05-12T05:17:32.710Z,69.80
2023-05-12T05:20:00.303Z,69.90
2023-05-12T05:22:31.036Z,70.40
2023-05-12T05:24:58.561Z,70.80
2023-05-12T05:27:36.457Z,71.00
2023-05-12T05:30:04.373Z,70.30
2023-05-12T05:32:31.787Z,70.00
2023-05-12T05:35:00.400Z,69.80
2023-05-12T05:37:27.793Z,69.90
2023-05-12T05:39:56.683Z,70.40
2023-05-12T05:42:24.045Z,70.90
2023-05-12T05:44:51.566Z,70.70
2023-05-12T05:47:19.673Z,70.80
2023-05-12T05:49:46.936Z,70.40
2023-05-12T05:52:14.258Z,70.30
2023-05-12T05:54:41.656Z,69.90
2023-05-12T05:57:09.046Z,70.10
2023-05-12T05:59:37.682Z,70.20
2023-05-12T06:02:05.716Z,69.50
2023-05-12T06:04:33.041Z,69.20
2023-05-12T06:07:00.298Z,69.50
2023-05-12T06:09:27.968Z,67.60
2023-05-12T06:11:55.555Z,67.50
2023-05-12T06:14:22.778Z,65.40
2023-05-12T06:16:49.985Z,64.40
2023-05-12T06:19:17.276Z,64.20
2023-05-12T06:21:44.516Z,63.00
2023-05-12T06:24:13.272Z,61.70
2023-05-12T06:26:43.829Z,62.50
2023-05-12T06:29:11.239Z,61.20
2023-05-12T06:31:38.855Z,62.10
2023-05-12T06:34:06.710Z,61.50
2023-05-12T06:36:37.113Z,61.80
2023-05-12T06:39:04.635Z,60.30
2023-05-12T06:41:33.555Z,60.00
2023-05-12T06:44:02.317Z,59.70
2023-05-12T06:46:29.665Z,59.90
2023-05-12T06:48:56.952Z,59.00
2023-05-12T06:51:24.190Z,58.90
2023-05-12T06:53:51.648Z,58.90
2023-05-12T06:56:18.878Z,59.80
2023-05-12T06:58:46.374Z,58.90
2023-05-12T07:01:13.722Z,56.70
2023-05-12T07:03:41.072Z,57.10
2023-05-12T07:06:08.952Z,55.70
2023-05-12T07:08:36.364Z,58.40
2023-05-12T07:11:03.654Z,56.20
2023-05-12T07:13:30.983Z,56.90
2023-05-12T07:15:58.279Z,55.90
2023-05-12T07:18:25.673Z,55.70
2023-05-12T07:20:53.321Z,54.80
2023-05-12T07:23:20.657Z,55.50
2023-05-12T07:25:47.948Z,56.00
2023-05-12T07:28:15.320Z,55.60
2023-05-12T07:30:48.840Z,54.50
2023-05-12T07:33:16.040Z,55.80
2023-05-12T07:35:43.421Z,55.80
2023-05-12T07:38:10.682Z,54.10
2023-05-12T07:40:37.899Z,53.90
2023-05-12T07:43:05.100Z,56.20
2023-05-12T07:45:32.327Z,55.20
2023-05-12T07:47:59.559Z,54.10
2023-05-12T07:50:26.946Z,53.20
2023-05-12T07:52:54.545Z,54.00
2023-05-12T07:55:23.155Z,54.80
2023-05-12T07:57:50.886Z,53.40
2023-05-12T08:00:18.705Z,54.40
2023-05-12T08:02:47.060Z,53.00
2023-05-12T08:05:14.568Z,53.40
2023-05-12T08:07:43.702Z,54.20
2023-05-12T08:10:13.011Z,53.50
2023-05-12T08:12:41.402Z,54.00
2023-05-12T08:15:09.499Z,51.60
2023-05-12T08:17:36.836Z,51.60
2023-05-12T08:20:05.164Z,52.00
2023-05-12T08:22:32.497Z,53.20
2023-05-12T08:24:59.886Z,51.90
2023-05-12T08:27:27.199Z,51.80
2023-05-12T08:29:54.418Z,50.40
2023-05-12T08:32:22.534Z,50.60
2023-05-12T08:34:49.908Z,49.40
2023-05-12T08:37:17.249Z,47.50
2023-05-12T08:39:44.767Z,47.80
2023-05-12T08:42:35.035Z,47.60
2023-05-12T08:45:03.771Z,45.40
2023-05-12T08:47:33.504Z,43.20
2023-05-12T08:50:03.180Z,43.20
2023-05-12T08:52:32.847Z,43.90
2023-05-12T08:55:01.052Z,44.20
2023-05-12T08:57:30.479Z,42.00
2023-05-12T09:00:00.019Z,43.90
2023-05-12T09:02:37.711Z,42.40
2023-05-12T09:05:12.279Z,43.10
2023-05-12T09:07:43.709Z,43.40
2023-05-12T09:10:29.920Z,41.60
2023-05-12T09:13:16.235Z,39.30
2023-05-12T09:15:45.897Z,38.10
2023-05-12T09:18:13.201Z,38.00
2023-05-12T09:20:40.579Z,37.10
2023-05-12T09:23:15.585Z,37.30
2023-05-12T09:25:42.930Z,36.10
2023-05-12T09:28:10.665Z,36.10
2023-05-12T09:30:43.132Z,33.90
2023-05-12T09:33:11.913Z,33.90
2023-05-12T09:35:43.916Z,35.60
2023-05-12T09:38:12.996Z,34.50
2023-05-12T09:40:41.053Z,32.50
2023-05-12T09:43:08.695Z,34.00
2023-05-12T09:45:39.412Z,34.50
2023-05-12T09:48:11.474Z,31.90
2023-05-12T09:50:49.584Z,30.30
2023-05-12T09:53:19.076Z,32.40
2023-05-12T09:55:47.707Z,31.50
2023-05-12T09:58:19.844Z,30.50
2023-05-12T10:03:18.696Z,30.80
2023-05-12T10:05:58.530Z,31.50
2023-05-12T10:08:32.113Z,30.80
2023-05-12T10:11:01.917Z,30.20
2023-05-12T10:13:29.430Z,32.10
2023-05-12T10:15:58.746Z,31.30
2023-05-12T10:18:26.249Z,31.70
2023-05-12T10:20:54.120Z,33.80
2023-05-12T10:23:22.530Z,32.60
2023-05-12T10:25:49.925Z,30.90
2023-05-12T10:28:17.399Z,30.00
2023-05-12T10:30:45.949Z,31.30
2023-05-12T10:33:13.175Z,30.30
2023-05-12T10:35:43.761Z,32.50
2023-05-12T10:38:15.008Z,30.60
2023-05-12T10:40:59.981Z,31.70
2023-05-12T10:43:30.034Z,31.40
2023-05-12T10:46:18.966Z,33.20
2023-05-12T10:48:59.239Z,31.10
2023-05-12T10:51:34.618Z,34.50
2023-05-12T10:54:05.386Z,30.40
2023-05-12T10:56:38.865Z,32.80
2023-05-12T10:59:21.006Z,30.80
2023-05-12T11:04:53.675Z,33.30
2023-05-12T11:07:26.582Z,33.10
2023-05-12T11:09:59.159Z,33.00
2023-05-12T11:12:33.757Z,30.70
2023-05-12T11:15:02.459Z,31.20
2023-05-12T11:17:29.883Z,33.70
2023-05-12T11:19:58.094Z,37.30
2023-05-12T11:22:25.924Z,31.40
2023-05-12T11:24:53.407Z,33.10
2023-05-12T11:27:22.834Z,31.60
2023-05-12T11:30:02.745Z,30.10
2023-05-12T11:32:30.578Z,31.00
2023-05-12T11:35:14.088Z,29.90
2023-05-12T11:37:43.369Z,28.50
2023-05-12T11:40:22.068Z,30.80
2023-05-12T11:42:52.486Z,32.20
2023-05-12T11:45:28.872Z,28.90
2023-05-12T11:48:11.512Z,26.30
2023-05-12T11:50:40.645Z,29.10
2023-05-12T11:53:14.580Z,31.80
2023-05-12T11:55:56.276Z,30.30
2023-05-12T11:58:29.896Z,29.70
2023-05-12T12:01:08.205Z,29.50
2023-05-12T12:03:55.417Z,29.10
2023-05-12T12:06:23.410Z,30.30
2023-05-12T12:08:59.976Z,30.70
2023-05-12T12:11:28.354Z,29.90
2023-05-12T12:13:58.811Z,29.80
2023-05-12T12:16:31.408Z,31.20
2023-05-12T12:18:58.871Z,35.20
2023-05-12T12:21:26.198Z,31.60
2023-05-12T12:23:53.485Z,32.90
2023-05-12T12:26:21.637Z,29.80
2023-05-12T12:28:49.388Z,30.80
2023-05-12T12:31:17.299Z,29.70
2023-05-12T12:33:44.581Z,30.80
2023-05-12T12:36:11.887Z,30.40
2023-05-12T12:38:39.166Z,31.10
2023-05-12T12:41:07.714Z,31.20
2023-05-12T12:43:34.918Z,32.80
2023-05-12T12:46:02.301Z,32.00
2023-05-12T12:48:29.581Z,29.20
2023-05-12T12:50:57.205Z,29.40
2023-05-12T12:53:24.492Z,30.40
2023-05-12T12:55:51.961Z,31.70
2023-05-12T12:58:23.531Z,33.50
2023-05-12T13:00:50.923Z,30.50
2023-05-12T13:03:20.213Z,27.70
2023-05-12T13:05:47.751Z,27.20
2023-05-12T13:08:16.488Z,27.40
2023-05-12T13:10:44.148Z,29.60
2023-05-12T13:13:14.177Z,30.30
2023-05-12T13:15:42.174Z,30.10
2023-05-12T13:18:09.537Z,32.00
2023-05-12T13:20:36.960Z,30.10
2023-05-12T13:23:04.273Z,30.90
2023-05-12T13:25:32.264Z,29.60
2023-05-12T13:27:59.571Z,28.70
2023-05-12T13:30:26.884Z,28.10
2023-05-12T13:33:04.403Z,27.80
2023-05-12T13:35:33.006Z,29.80
2023-05-12T13:38:00.388Z,29.50
2023-05-12T13:40:27.923Z,29.60
2023-05-12T13:42:55.134Z,27.30
2023-05-12T13:45:22.556Z,31.50
2023-05-12T13:47:49.929Z,27.60
2023-05-12T13:50:17.153Z,25.70
2023-05-12T13:52:44.444Z,25.00
2023-05-12T13:55:18.451Z,23.20
2023-05-12T13:57:48.241Z,23.90
2023-05-12T14:00:17.264Z,24.40
2023-05-12T14:02:48.051Z,25.30
2023-05-12T14:05:15.597Z,26.70
2023-05-12T14:07:42.841Z,27.60
2023-05-12T14:10:10.813Z,27.60
2023-05-12T14:12:38.664Z,26.90
2023-05-12T14:15:23.633Z,25.70
2023-05-12T14:17:54.368Z,24.80
2023-05-12T14:20:21.647Z,26.20
2023-05-12T14:22:48.980Z,26.00
2023-05-12T14:25:16.383Z,28.40
2023-05-12T14:27:44.832Z,28.60
2023-05-12T14:30:12.509Z,28.90
2023-05-12T14:32:41.918Z,25.80
2023-05-12T14:35:11.905Z,23.70
2023-05-12T14:37:39.231Z,22.90
2023-05-12T14:40:07.452Z,19.80
2023-05-12T14:42:34.760Z,20.00
2023-05-12T14:45:02.582Z,20.60
2023-05-12T14:47:30.158Z,21.50
2023-05-12T14:49:58.498Z,23.10
2023-05-12T14:52:25.709Z,24.40
2023-05-12T14:54:52.913Z,24.60
2023-05-12T14:57:20.139Z,26.50
2023-05-12T14:59:47.378Z,27.20
2023-05-12T15:02:15.690Z,28.30
2023-05-12T15:04:43.749Z,29.10
2023-05-12T15:07:11.214Z,24.30
2023-05-12T15:09:38.429Z,24.60
2023-05-12T15:12:06.012Z,20.60
2023-05-12T15:14:33.383Z,19.30
2023-05-12T15:17:00.634Z,17.70
2023-05-12T15:19:27.957Z,18.70
2023-05-12T15:21:55.196Z,18.20
2023-05-12T15:24:22.452Z,17.90
2023-05-12T15:26:49.752Z,17.10
2023-05-12T15:29:16.958Z,17.00
2023-05-12T15:31:44.354Z,17.70
2023-05-12T15:34:11.657Z,19.20
2023-05-12T15:36:38.870Z,19.00
2023-05-12T15:39:06.057Z,19.10
2023-05-12T15:41:33.311Z,18.70
2023-05-12T15:44:02.975Z,17.60
2023-05-12T15:46:31.069Z,18.50
2023-05-12T15:48:58.744Z,19.40
2023-05-12T15:51:26.005Z,19.00
2023-05-12T15:53:53.362Z,18.60
2023-05-12T15:56:21.915Z,19.30
2023-05-12T15:58:49.182Z,18.20
2023-05-12T16:05:29.906Z,18.20
2023-05-12T16:07:57.432Z,16.80
2023-05-12T16:10:24.681Z,16.70
2023-05-12T16:12:51.938Z,17.60
2023-05-12T16:15:19.721Z,18.10
2023-05-12T16:17:47.374Z,17.30
2023-05-12T16:20:16.157Z,17.30
2023-05-12T16:22:45.835Z,16.20
2023-05-12T16:25:15.963Z,16.90
2023-05-12T16:27:45.172Z,17.00
2023-05-12T16:30:14.336Z,17.50
2023-05-12T16:32:41.828Z,18.70
2023-05-12T16:35:09.986Z,17.50
2023-05-12T16:37:37.891Z,16.80
2023-05-12T16:40:06.079Z,16.90
2023-05-12T16:42:33.234Z,17.40
2023-05-12T16:45:03.311Z,16.50
2023-05-12T16:47:37.780Z,17.00
2023-05-12T16:50:10.627Z,18.30
2023-05-12T16:52:39.335Z,17.70
2023-05-12T16:55:08.058Z,17.80
2023-05-12T16:57:39.764Z,17.80
2023-05-12T17:00:11.451Z,17.50
2023-05-12T17:02:39.298Z,18.40
2023-05-12T17:05:06.993Z,18.00
2023-05-12T17:07:35.627Z,17.20
2023-05-12T17:10:03.461Z,17.90
2023-05-12T17:12:34.531Z,18.50
2023-05-12T17:15:08.530Z,18.90
2023-05-12T17:17:46.856Z,19.80
2023-05-12T17:20:21.025Z,21.30
2023-05-12T17:22:58.310Z,22.60
2023-05-12T17:25:35.519Z,24.20
2023-05-12T17:28:08.169Z,25.20
2023-05-12T17:30:38.495Z,26.80
2023-05-12T17:33:08.896Z,27.50
2023-05-12T17:35:36.880Z,29.00
2023-05-12T17:38:07.040Z,28.80
2023-05-12T17:40:35.470Z,30.30
2023-05-12T17:43:05.510Z,30.50
2023-05-12T17:45:35.994Z,30.90
2023-05-12T17:48:03.401Z,31.40
2023-05-12T17:50:30.697Z,31.10
2023-05-12T17:52:58.925Z,32.00
2023-05-12T17:55:26.222Z,31.70
2023-05-12T17:57:54.281Z,32.50
2023-05-12T18:00:21.818Z,32.20
2023-05-12T18:02:49.805Z,32.50
2023-05-12T18:05:18.226Z,31.90
2023-05-12T18:07:45.568Z,32.40
2023-05-12T18:10:12.980Z,32.80
2023-05-12T18:12:40.523Z,32.90
2023-05-12T18:15:08.917Z,33.70
2023-05-12T18:17:38.123Z,33.60
2023-05-12T18:20:06.855Z,33.20
2023-05-12T18:22:34.174Z,33.50
2023-05-12T18:25:01.700Z,32.90
2023-05-12T18:27:29.028Z,33.80
2023-05-12T18:29:58.222Z,33.70
2023-05-12T18:32:26.424Z,33.90
2023-05-12T18:34:53.720Z,33.80
2023-05-12T18:37:21.532Z,34.70
2023-05-12T18:39:49.115Z,35.10
2023-05-12T18:42:16.986Z,35.00
2023-05-12T18:44:44.282Z,34.90
2023-05-12T18:47:11.808Z,35.20
2023-05-12T18:49:39.328Z,35.30
2023-05-12T18:52:06.661Z,35.40
2023-05-12T18:54:35.011Z,35.80
2023-05-12T18:57:02.948Z,36.00
2023-05-12T18:59:30.270Z,35.60
2023-05-12T19:01:57.560Z,35.60
2023-05-12T19:04:24.939Z,36.40
2023-05-12T19:06:52.227Z,36.60
2023-05-12T19:09:19.484Z,36.40
2023-05-12T19:11:47.171Z,36.80
2023-05-12T19:14:16.656Z,37.00
2023-05-12T19:16:46.595Z,37.00
2023-05-12T19:19:14.441Z,36.70
2023-05-12T19:21:42.362Z,37.60
2023-05-12T19:24:10.782Z,38.00
2023-05-12T19:26:38.086Z,37.50
2023-05-12T19:29:05.807Z,38.10
2023-05-12T19:31:34.534Z,38.60
2023-05-12T19:34:02.571Z,38.60
2023-05-12T19:36:30.673Z,38.40
2023-05-12T19:39:00.312Z,39.30
2023-05-12T19:41:28.744Z,39.40
2023-05-12T19:43:56.419Z,38.80
2023-05-12T19:46:23.765Z,38.90
2023-05-12T19:48:52.024Z,39.40
2023-05-12T19:51:19.251Z,39.30
2023-05-12T19:53:46.485Z,39.20
2023-05-12T19:56:13.778Z,39.20
2023-05-12T19:58:40.991Z,39.90
2023-05-12T20:01:08.486Z,39.20
2023-05-12T20:03:35.779Z,39.70
2023-05-12T20:06:03.260Z,40.10
2023-05-12T20:08:30.499Z,40.50
2023-05-12T20:10:57.755Z,39.70
2023-05-12T20:13:24.973Z,39.10
2023-05-12T20:15:52.202Z,39.60
2023-05-12T20:18:21.388Z,39.90
2023-05-12T20:20:48.880Z,40.70
2023-05-12T20:23:16.616Z,40.30
2023-05-12T20:25:44.210Z,40.00
2023-05-12T20:28:12.799Z,40.00
2023-05-12T20:30:40.950Z,39.80
2023-05-12T20:33:08.322Z,40.80
2023-05-12T20:35:35.509Z,40.70
2023-05-12T20:38:02.856Z,40.80
2023-05-12T20:40:30.164Z,41.10
2023-05-12T20:42:57.372Z,40.80
2023-05-12T20:45:24.703Z,40.90
2023-05-12T20:47:52.199Z,41.20
2023-05-12T20:50:19.701Z,41.00
2023-05-12T20:52:47.434Z,41.40
2023-05-12T20:55:14.688Z,41.40
2023-05-12T20:57:42.121Z,41.40
2023-05-12T21:00:10.779Z,41.50
2023-05-12T21:02:38.319Z,41.40
2023-05-12T21:05:06.839Z,41.40
2023-05-12T21:07:34.190Z,41.50
2023-05-12T21:10:03.039Z,41.70
2023-05-12T21:12:30.403Z,42.00
2023-05-12T21:14:57.611Z,42.20
2023-05-12T21:17:24.861Z,42.70
2023-05-12T21:19:52.180Z,42.70
2023-05-12T21:22:19.399Z,42.70
2023-05-12T21:24:46.687Z,42.60
2023-05-12T21:27:13.906Z,42.60
2023-05-12T21:29:41.149Z,43.30
2023-05-12T21:32:08.645Z,43.20
2023-05-12T21:34:36.227Z,43.10
2023-05-12T21:37:03.521Z,42.90
2023-05-12T21:39:30.765Z,43.30
2023-05-12T21:41:57.978Z,43.80
2023-05-12T21:44:25.312Z,44.30
2023-05-12T21:46:52.517Z,44.20
2023-05-12T21:49:19.695Z,43.50
2023-05-12T21:51:46.900Z,43.50
2023-05-12T21:54:14.219Z,44.40
2023-05-12T21:56:41.445Z,44.30
2023-05-12T21:59:09.094Z,43.80
2023-05-12T22:01:36.427Z,44.60
2023-05-12T22:04:04.997Z,44.80
2023-05-12T22:06:32.348Z,44.50
2023-05-12T22:08:59.688Z,44.50
2023-05-12T22:11:26.977Z,44.60
2023-05-12T22:13:54.208Z,44.90
2023-05-12T22:16:25.868Z,45.50
2023-05-12T22:18:59.013Z,45.10
2023-05-12T22:21:26.284Z,45.80
2023-05-12T22:23:53.543Z,45.70
2023-05-12T22:26:20.720Z,45.80
2023-05-12T22:28:47.938Z,46.10
2023-05-12T22:31:15.308Z,46.50
2023-05-12T22:33:42.542Z,46.60
2023-05-12T22:36:09.890Z,46.30
2023-05-12T22:38:37.079Z,46.40
2023-05-12T22:41:04.659Z,46.80
2023-05-12T22:43:31.851Z,46.80
2023-05-12T22:45:59.067Z,47.50
2023-05-12T22:48:27.152Z,48.10
2023-05-12T22:50:54.769Z,47.80
2023-05-12T22:53:22.057Z,47.60
2023-05-12T22:55:49.249Z,48.30
2023-05-12T22:58:16.790Z,47.80
2023-05-12T23:00:44.185Z,48.40
2023-05-12T23:03:11.820Z,48.20
2023-05-12T23:05:39.125Z,49.20
2023-05-12T23:08:06.394Z,49.60
2023-05-12T23:10:33.603Z,48.90
2023-05-12T23:13:00.857Z,49.50
2023-05-12T23:15:28.068Z,49.20
2023-05-12T23:17:55.362Z,48.80
2023-05-12T23:20:22.886Z,50.70
2023-05-12T23:22:50.331Z,50.00
2023-05-12T23:25:17.632Z,49.70
2023-05-12T23:27:44.946Z,50.60
2023-05-12T23:30:12.502Z,50.70
2023-05-12T23:32:40.003Z,51.00
2023-05-12T23:35:08.445Z,49.90
2023-05-12T23:37:35.695Z,50.00
2023-05-12T23:40:03.928Z,49.70
2023-05-12T23:42:31.244Z,50.80
2023-05-12T23:44:58.495Z,51.00
2023-05-12T23:47:25.755Z,51.10
2023-05-12T23:49:53.077Z,50.80
2023-05-12T23:52:20.440Z,51.20
2023-05-12T23:54:47.647Z,51.20
2023-05-12T23:57:16.033Z,51.20
2023-05-12T23:59:43.937Z,51.70
